KORL

Executive Airport

Orlando, Florida, USA
METAR KORL 231053Z 09003KT 6SM BR CLR 21/21 A3010 RMK AO2 SLP197 T02110206
Observed Flight Rules
May-23 @ 10:53 UTC (17 minutes ago) Visual Flight Rules
Wind Visibility Clouds Conditions
90° at 3 knots 6 miles
  • Clear skies
  • Mist
Temperatures Readings
Current 21°C / 70°F
Dewpoint 21°C / 70°F
Humidity 100%
Altimeter 30.1" Hg
Pressure 1019.7 hPa
Elevation 37
METAR KORL 231053Z 09003KT 6SM BR CLR 21/21 A3010 RMK AO2 SLP197 T02110206
Observed Flight Rules
May-23 @ 10:53 UTC
(17 minutes ago)
VFR
Wind Visibility
90° at 3 knots 6 miles
Clouds
  • Clear skies
Conditions
  • Mist
Temperature Dewpoint
21°C / 70°F 21°C / 70°F
Humidity Altimeter Pressure
100% 30.1" Hg 1019.7 hPa